Fresh Meadows, New York
Current Conditions -  °F | °C
As of 11:51 PM on Saturday 25 Oct 2014 (Local Time) from KLGA Reporting Station
Few Clouds Few Clouds  
Wind Chill: 62°   Ceiling: Unl
Heat Index: 62°   Visibility: 10mi
Dew Point: 45°   Wind: 14mph
Humidity: 53%   Direction: 230°SW
Pressure: 29.56"   Gusts: 21mph
Location:  40.73°N, 73.79°W
Report Text: KLGA 260351Z 23012G18KT 10SM FEW100 17/07 A2956 RMK AO2 PK WND 24027/0252 SLP008 T01670072
Loading
Personal Weather Stations






























Interactive Weather Map
Tropical Storm Tracking
New forecast layout! Learn more

10-Day Weather Forecast

Advertisements
Track Severe Weather on mobile